sensor_id;sensor_type;location;lat;lon;timestamp;temperature;humidity
44537;DHT22;30245;51.966;6.292;2022-08-04T00:00:15;30.50;45.80
44537;DHT22;30245;51.966;6.292;2022-08-04T00:08:22;30.40;45.90
44537;DHT22;30245;51.966;6.292;2022-08-04T00:10:54;30.40;46.00
44537;DHT22;30245;51.966;6.292;2022-08-04T00:13:30;30.40;46.00
44537;DHT22;30245;51.966;6.292;2022-08-04T00:15:58;30.30;46.00
44537;DHT22;30245;51.966;6.292;2022-08-04T00:18:34;30.30;46.10
44537;DHT22;30245;51.966;6.292;2022-08-04T00:21:05;30.20;46.10
44537;DHT22;30245;51.966;6.292;2022-08-04T00:23:35;30.20;46.20
44537;DHT22;30245;51.966;6.292;2022-08-04T00:26:02;30.20;46.20
44537;DHT22;30245;51.966;6.292;2022-08-04T00:28:29;30.30;46.30
44537;DHT22;30245;51.966;6.292;2022-08-04T00:30:55;30.30;46.30
44537;DHT22;30245;51.966;6.292;2022-08-04T00:33:21;30.20;46.20
44537;DHT22;30245;51.966;6.292;2022-08-04T00:35:48;30.10;46.30
44537;DHT22;30245;51.966;6.292;2022-08-04T00:38:15;30.00;46.40
44537;DHT22;30245;51.966;6.292;2022-08-04T00:43:26;30.00;46.50
44537;DHT22;30245;51.966;6.292;2022-08-04T00:48:44;30.00;46.50
44537;DHT22;30245;51.966;6.292;2022-08-04T00:56:56;29.80;46.60
44537;DHT22;30245;51.966;6.292;2022-08-04T01:02:24;29.70;46.80
44537;DHT22;30245;51.966;6.292;2022-08-04T01:05:05;29.60;46.80
44537;DHT22;30245;51.966;6.292;2022-08-04T01:07:53;29.60;46.90
44537;DHT22;30245;51.966;6.292;2022-08-04T01:13:33;29.60;46.90
44537;DHT22;30245;51.966;6.292;2022-08-04T01:16:06;29.60;46.90
44537;DHT22;30245;51.966;6.292;2022-08-04T01:27:03;29.40;47.20
44537;DHT22;30245;51.966;6.292;2022-08-04T01:29:33;29.30;47.20
44537;DHT22;30245;51.966;6.292;2022-08-04T01:32:13;29.30;47.30
44537;DHT22;30245;51.966;6.292;2022-08-04T01:34:50;29.20;47.40
44537;DHT22;30245;51.966;6.292;2022-08-04T01:39:59;29.20;47.60
44537;DHT22;30245;51.966;6.292;2022-08-04T01:42:28;29.10;47.60
44537;DHT22;30245;51.966;6.292;2022-08-04T01:44:58;29.10;47.70
44537;DHT22;30245;51.966;6.292;2022-08-04T01:47:28;29.00;47.70
44537;DHT22;30245;51.966;6.292;2022-08-04T01:49:54;29.00;47.80
44537;DHT22;30245;51.966;6.292;2022-08-04T01:52:26;29.00;47.90
44537;DHT22;30245;51.966;6.292;2022-08-04T01:54:53;28.90;47.90
44537;DHT22;30245;51.966;6.292;2022-08-04T01:57:20;28.90;47.90
44537;DHT22;30245;51.966;6.292;2022-08-04T01:59:50;28.90;47.80
44537;DHT22;30245;51.966;6.292;2022-08-04T02:02:16;29.00;47.80
44537;DHT22;30245;51.966;6.292;2022-08-04T02:04:42;29.00;47.70
44537;DHT22;30245;51.966;6.292;2022-08-04T02:14:55;29.00;47.70
44537;DHT22;30245;51.966;6.292;2022-08-04T02:20:38;29.00;47.60
44537;DHT22;30245;51.966;6.292;2022-08-04T02:23:08;28.90;47.60
44537;DHT22;30245;51.966;6.292;2022-08-04T02:25:40;29.00;47.70
44537;DHT22;30245;51.966;6.292;2022-08-04T02:28:35;28.90;47.70
44537;DHT22;30245;51.966;6.292;2022-08-04T02:31:17;28.90;47.80
44537;DHT22;30245;51.966;6.292;2022-08-04T02:33:45;28.90;47.80
44537;DHT22;30245;51.966;6.292;2022-08-04T02:36:21;28.90;47.80
44537;DHT22;30245;51.966;6.292;2022-08-04T02:41:22;28.90;47.70
44537;DHT22;30245;51.966;6.292;2022-08-04T02:43:48;28.80;47.70
44537;DHT22;30245;51.966;6.292;2022-08-04T02:46:18;28.80;47.60
44537;DHT22;30245;51.966;6.292;2022-08-04T02:48:45;28.80;47.70
44537;DHT22;30245;51.966;6.292;2022-08-04T02:51:12;28.80;47.60
44537;DHT22;30245;51.966;6.292;2022-08-04T02:53:38;28.80;47.50
44537;DHT22;30245;51.966;6.292;2022-08-04T02:56:06;28.80;47.50
44537;DHT22;30245;51.966;6.292;2022-08-04T02:58:34;28.70;47.50
44537;DHT22;30245;51.966;6.292;2022-08-04T03:01:00;28.70;47.60
44537;DHT22;30245;51.966;6.292;2022-08-04T03:26:31;28.40;47.90
44537;DHT22;30245;51.966;6.292;2022-08-04T03:41:19;28.30;47.80
44537;DHT22;30245;51.966;6.292;2022-08-04T03:46:42;28.40;47.70
44537;DHT22;30245;51.966;6.292;2022-08-04T03:55:32;28.50;47.60
44537;DHT22;30245;51.966;6.292;2022-08-04T04:04:13;28.60;47.30
44537;DHT22;30245;51.966;6.292;2022-08-04T04:29:32;28.50;47.60
44537;DHT22;30245;51.966;6.292;2022-08-04T04:34:52;28.50;47.70
44537;DHT22;30245;51.966;6.292;2022-08-04T04:40:45;28.50;47.60
44537;DHT22;30245;51.966;6.292;2022-08-04T04:49:03;28.50;47.80
44537;DHT22;30245;51.966;6.292;2022-08-04T04:51:41;28.50;47.70
44537;DHT22;30245;51.966;6.292;2022-08-04T04:54:19;28.50;47.70
44537;DHT22;30245;51.966;6.292;2022-08-04T04:59:32;28.60;47.70
44537;DHT22;30245;51.966;6.292;2022-08-04T05:02:22;28.70;47.70
44537;DHT22;30245;51.966;6.292;2022-08-04T05:07:59;28.70;47.70
44537;DHT22;30245;51.966;6.292;2022-08-04T05:15:43;28.70;47.80
44537;DHT22;30245;51.966;6.292;2022-08-04T05:18:21;28.70;47.70
44537;DHT22;30245;51.966;6.292;2022-08-04T05:20:56;28.70;47.80
44537;DHT22;30245;51.966;6.292;2022-08-04T05:23:25;28.60;47.80
44537;DHT22;30245;51.966;6.292;2022-08-04T05:28:35;28.70;47.90
44537;DHT22;30245;51.966;6.292;2022-08-04T05:31:10;28.70;47.90
44537;DHT22;30245;51.966;6.292;2022-08-04T05:33:46;28.70;47.90
44537;DHT22;30245;51.966;6.292;2022-08-04T05:36:17;28.70;47.90
44537;DHT22;30245;51.966;6.292;2022-08-04T05:38:45;28.80;48.00
44537;DHT22;30245;51.966;6.292;2022-08-04T05:41:14;28.80;47.90
44537;DHT22;30245;51.966;6.292;2022-08-04T05:43:42;29.00;47.90
44537;DHT22;30245;51.966;6.292;2022-08-04T05:46:08;29.00;47.70
44537;DHT22;30245;51.966;6.292;2022-08-04T05:48:35;29.10;47.70
44537;DHT22;30245;51.966;6.292;2022-08-04T05:51:02;29.20;47.60
44537;DHT22;30245;51.966;6.292;2022-08-04T05:53:29;29.30;47.40
44537;DHT22;30245;51.966;6.292;2022-08-04T05:55:56;29.40;47.40
44537;DHT22;30245;51.966;6.292;2022-08-04T05:58:22;29.50;47.30
44537;DHT22;30245;51.966;6.292;2022-08-04T06:00:50;29.50;47.30
44537;DHT22;30245;51.966;6.292;2022-08-04T06:03:16;29.60;47.20
44537;DHT22;30245;51.966;6.292;2022-08-04T06:05:43;29.60;47.20
44537;DHT22;30245;51.966;6.292;2022-08-04T06:08:10;29.70;47.10
44537;DHT22;30245;51.966;6.292;2022-08-04T06:10:37;29.70;47.10
44537;DHT22;30245;51.966;6.292;2022-08-04T06:13:10;29.80;47.20
44537;DHT22;30245;51.966;6.292;2022-08-04T06:15:38;29.70;47.20
44537;DHT22;30245;51.966;6.292;2022-08-04T06:18:06;29.70;47.40
44537;DHT22;30245;51.966;6.292;2022-08-04T06:20:33;29.70;47.40
44537;DHT22;30245;51.966;6.292;2022-08-04T06:23:03;29.80;47.40
44537;DHT22;30245;51.966;6.292;2022-08-04T06:25:37;29.80;47.30
44537;DHT22;30245;51.966;6.292;2022-08-04T06:28:05;29.90;47.20
44537;DHT22;30245;51.966;6.292;2022-08-04T06:30:33;30.00;47.20
44537;DHT22;30245;51.966;6.292;2022-08-04T06:32:59;30.10;47.20
44537;DHT22;30245;51.966;6.292;2022-08-04T06:35:28;30.20;47.10
44537;DHT22;30245;51.966;6.292;2022-08-04T06:37:55;30.20;47.00
44537;DHT22;30245;51.966;6.292;2022-08-04T06:40:22;30.30;47.00
44537;DHT22;30245;51.966;6.292;2022-08-04T06:42:49;30.30;46.90
44537;DHT22;30245;51.966;6.292;2022-08-04T06:45:16;30.40;46.90
44537;DHT22;30245;51.966;6.292;2022-08-04T06:47:43;30.50;46.80
44537;DHT22;30245;51.966;6.292;2022-08-04T06:50:10;30.50;46.80
44537;DHT22;30245;51.966;6.292;2022-08-04T06:52:36;30.70;46.80
44537;DHT22;30245;51.966;6.292;2022-08-04T06:55:03;30.70;46.70
44537;DHT22;30245;51.966;6.292;2022-08-04T06:57:30;30.80;46.60
44537;DHT22;30245;51.966;6.292;2022-08-04T07:00:02;30.90;46.50
44537;DHT22;30245;51.966;6.292;2022-08-04T07:02:32;31.00;46.30
44537;DHT22;30245;51.966;6.292;2022-08-04T07:04:58;31.00;46.40
44537;DHT22;30245;51.966;6.292;2022-08-04T07:07:24;31.10;46.40
44537;DHT22;30245;51.966;6.292;2022-08-04T07:09:50;31.10;46.40
44537;DHT22;30245;51.966;6.292;2022-08-04T07:12:17;31.20;46.40
44537;DHT22;30245;51.966;6.292;2022-08-04T07:14:47;31.20;46.20
44537;DHT22;30245;51.966;6.292;2022-08-04T07:17:13;31.20;45.90
44537;DHT22;30245;51.966;6.292;2022-08-04T07:19:40;31.30;45.90
44537;DHT22;30245;51.966;6.292;2022-08-04T07:22:06;31.30;45.90
44537;DHT22;30245;51.966;6.292;2022-08-04T07:24:36;31.30;45.60
44537;DHT22;30245;51.966;6.292;2022-08-04T07:27:03;31.30;45.50
44537;DHT22;30245;51.966;6.292;2022-08-04T07:29:29;31.40;45.40
44537;DHT22;30245;51.966;6.292;2022-08-04T07:31:56;31.50;45.30
44537;DHT22;30245;51.966;6.292;2022-08-04T07:34:23;31.50;45.30
44537;DHT22;30245;51.966;6.292;2022-08-04T07:36:52;31.50;45.30
44537;DHT22;30245;51.966;6.292;2022-08-04T07:39:18;31.50;45.20
44537;DHT22;30245;51.966;6.292;2022-08-04T07:41:45;31.50;45.00
44537;DHT22;30245;51.966;6.292;2022-08-04T07:44:13;31.50;45.10
44537;DHT22;30245;51.966;6.292;2022-08-04T07:46:39;31.60;45.00
44537;DHT22;30245;51.966;6.292;2022-08-04T07:49:05;31.60;44.90
44537;DHT22;30245;51.966;6.292;2022-08-04T07:51:32;31.60;44.90
44537;DHT22;30245;51.966;6.292;2022-08-04T07:54:00;31.70;44.90
44537;DHT22;30245;51.966;6.292;2022-08-04T07:56:29;31.70;44.80
44537;DHT22;30245;51.966;6.292;2022-08-04T07:58:55;31.80;44.60
44537;DHT22;30245;51.966;6.292;2022-08-04T08:01:22;31.90;44.50
44537;DHT22;30245;51.966;6.292;2022-08-04T08:03:49;31.90;44.40
44537;DHT22;30245;51.966;6.292;2022-08-04T08:06:15;31.90;44.30
44537;DHT22;30245;51.966;6.292;2022-08-04T08:08:41;32.00;44.20
44537;DHT22;30245;51.966;6.292;2022-08-04T08:11:06;32.10;44.10
44537;DHT22;30245;51.966;6.292;2022-08-04T08:13:33;32.10;43.90
44537;DHT22;30245;51.966;6.292;2022-08-04T08:16:00;32.20;43.80
44537;DHT22;30245;51.966;6.292;2022-08-04T08:18:25;32.30;43.90
44537;DHT22;30245;51.966;6.292;2022-08-04T08:20:51;32.30;43.80
44537;DHT22;30245;51.966;6.292;2022-08-04T08:23:17;32.40;43.70
44537;DHT22;30245;51.966;6.292;2022-08-04T08:25:44;32.50;43.40
44537;DHT22;30245;51.966;6.292;2022-08-04T08:28:10;32.60;43.10
44537;DHT22;30245;51.966;6.292;2022-08-04T08:30:36;32.70;43.00
44537;DHT22;30245;51.966;6.292;2022-08-04T08:33:04;32.90;42.90
44537;DHT22;30245;51.966;6.292;2022-08-04T08:35:34;32.90;42.70
44537;DHT22;30245;51.966;6.292;2022-08-04T08:38:04;33.10;42.80
44537;DHT22;30245;51.966;6.292;2022-08-04T08:40:50;33.10;42.40
44537;DHT22;30245;51.966;6.292;2022-08-04T08:52:18;33.30;41.40
44537;DHT22;30245;51.966;6.292;2022-08-04T09:00:31;33.30;41.00
44537;DHT22;30245;51.966;6.292;2022-08-04T09:10:45;33.50;41.10
44537;DHT22;30245;51.966;6.292;2022-08-04T09:13:25;33.70;40.90
44537;DHT22;30245;51.966;6.292;2022-08-04T09:16:01;33.90;40.70
44537;DHT22;30245;51.966;6.292;2022-08-04T09:19:11;34.20;40.40
44537;DHT22;30245;51.966;6.292;2022-08-04T09:21:50;34.40;40.30
44537;DHT22;30245;51.966;6.292;2022-08-04T09:27:19;34.50;40.20
44537;DHT22;30245;51.966;6.292;2022-08-04T09:32:30;34.50;40.30
44537;DHT22;30245;51.966;6.292;2022-08-04T09:38:18;34.80;40.50
44537;DHT22;30245;51.966;6.292;2022-08-04T09:41:00;35.00;40.00
44537;DHT22;30245;51.966;6.292;2022-08-04T10:00:07;36.00;39.20
44537;DHT22;30245;51.966;6.292;2022-08-04T10:02:37;36.30;38.70
44537;DHT22;30245;51.966;6.292;2022-08-04T10:05:06;36.30;38.40
44537;DHT22;30245;51.966;6.292;2022-08-04T10:15:26;36.50;37.70
44537;DHT22;30245;51.966;6.292;2022-08-04T10:23:20;36.90;36.80
44537;DHT22;30245;51.966;6.292;2022-08-04T10:26:01;36.90;37.00
44537;DHT22;30245;51.966;6.292;2022-08-04T10:28:29;37.00;37.00
44537;DHT22;30245;51.966;6.292;2022-08-04T10:31:02;37.00;36.90
44537;DHT22;30245;51.966;6.292;2022-08-04T10:33:38;37.00;36.60
44537;DHT22;30245;51.966;6.292;2022-08-04T10:36:08;37.10;36.40
44537;DHT22;30245;51.966;6.292;2022-08-04T10:38:49;37.20;36.20
44537;DHT22;30245;51.966;6.292;2022-08-04T10:41:32;37.20;36.10
44537;DHT22;30245;51.966;6.292;2022-08-04T10:44:16;37.10;36.10
44537;DHT22;30245;51.966;6.292;2022-08-04T10:46:57;36.90;36.30
44537;DHT22;30245;51.966;6.292;2022-08-04T10:49:34;36.70;36.50
44537;DHT22;30245;51.966;6.292;2022-08-04T10:54:57;36.40;36.20
44537;DHT22;30245;51.966;6.292;2022-08-04T10:57:33;36.10;36.30
44537;DHT22;30245;51.966;6.292;2022-08-04T11:00:04;35.90;36.50
44537;DHT22;30245;51.966;6.292;2022-08-04T11:02:45;35.70;36.70
44537;DHT22;30245;51.966;6.292;2022-08-04T11:05:38;35.60;37.00
44537;DHT22;30245;51.966;6.292;2022-08-04T11:08:14;35.50;37.30
44537;DHT22;30245;51.966;6.292;2022-08-04T11:10:47;35.40;37.60
44537;DHT22;30245;51.966;6.292;2022-08-04T11:13:16;35.20;38.10
44537;DHT22;30245;51.966;6.292;2022-08-04T11:15:50;34.90;38.70
44537;DHT22;30245;51.966;6.292;2022-08-04T11:21:20;34.30;40.00
44537;DHT22;30245;51.966;6.292;2022-08-04T11:23:57;34.00;42.90
44537;DHT22;30245;51.966;6.292;2022-08-04T11:26:37;33.70;44.20
44537;DHT22;30245;51.966;6.292;2022-08-04T11:31:46;32.70;46.90
44537;DHT22;30245;51.966;6.292;2022-08-04T11:34:23;32.30;47.80
44537;DHT22;30245;51.966;6.292;2022-08-04T11:37:08;31.90;48.60
44537;DHT22;30245;51.966;6.292;2022-08-04T11:39:41;31.60;49.40
44537;DHT22;30245;51.966;6.292;2022-08-04T11:42:25;31.50;50.20
44537;DHT22;30245;51.966;6.292;2022-08-04T11:45:02;31.30;50.80
44537;DHT22;30245;51.966;6.292;2022-08-04T11:50:46;31.20;51.20
44537;DHT22;30245;51.966;6.292;2022-08-04T11:53:15;31.20;51.70
44537;DHT22;30245;51.966;6.292;2022-08-04T11:55:45;31.10;52.30
44537;DHT22;30245;51.966;6.292;2022-08-04T11:58:14;31.00;52.60
44537;DHT22;30245;51.966;6.292;2022-08-04T12:06:27;31.10;53.70
44537;DHT22;30245;51.966;6.292;2022-08-04T12:09:06;31.10;53.90
44537;DHT22;30245;51.966;6.292;2022-08-04T12:17:00;31.10;54.30
44537;DHT22;30245;51.966;6.292;2022-08-04T12:19:40;31.10;54.60
44537;DHT22;30245;51.966;6.292;2022-08-04T12:22:15;31.00;54.70
44537;DHT22;30245;51.966;6.292;2022-08-04T12:28:00;30.90;54.80
44537;DHT22;30245;51.966;6.292;2022-08-04T12:30:31;30.80;55.10
44537;DHT22;30245;51.966;6.292;2022-08-04T12:33:06;30.70;55.40
44537;DHT22;30245;51.966;6.292;2022-08-04T12:38:14;30.60;55.80
44537;DHT22;30245;51.966;6.292;2022-08-04T12:40:45;30.60;55.80
44537;DHT22;30245;51.966;6.292;2022-08-04T12:43:42;30.60;56.10
44537;DHT22;30245;51.966;6.292;2022-08-04T12:46:11;30.60;56.10
44537;DHT22;30245;51.966;6.292;2022-08-04T12:48:38;30.60;56.00
44537;DHT22;30245;51.966;6.292;2022-08-04T12:51:07;30.60;56.00
44537;DHT22;30245;51.966;6.292;2022-08-04T12:53:40;30.70;55.90
44537;DHT22;30245;51.966;6.292;2022-08-04T12:56:08;30.90;55.70
44537;DHT22;30245;51.966;6.292;2022-08-04T12:58:40;31.20;56.00
44537;DHT22;30245;51.966;6.292;2022-08-04T13:01:09;31.50;55.60
44537;DHT22;30245;51.966;6.292;2022-08-04T13:03:51;31.90;54.70
44537;DHT22;30245;51.966;6.292;2022-08-04T13:06:26;32.20;53.80
44537;DHT22;30245;51.966;6.292;2022-08-04T13:08:53;32.50;53.30
44537;DHT22;30245;51.966;6.292;2022-08-04T13:11:20;32.70;52.60
44537;DHT22;30245;51.966;6.292;2022-08-04T13:13:50;32.80;52.30
44537;DHT22;30245;51.966;6.292;2022-08-04T13:16:18;32.90;51.80
44537;DHT22;30245;51.966;6.292;2022-08-04T13:18:53;32.90;51.10
44537;DHT22;30245;51.966;6.292;2022-08-04T13:21:21;32.90;50.90
44537;DHT22;30245;51.966;6.292;2022-08-04T13:23:52;32.80;50.80
44537;DHT22;30245;51.966;6.292;2022-08-04T13:26:20;32.70;50.80
44537;DHT22;30245;51.966;6.292;2022-08-04T13:28:48;32.70;51.00
44537;DHT22;30245;51.966;6.292;2022-08-04T13:31:18;32.60;51.10
44537;DHT22;30245;51.966;6.292;2022-08-04T13:33:47;32.50;51.00
44537;DHT22;30245;51.966;6.292;2022-08-04T13:36:15;32.50;50.70
44537;DHT22;30245;51.966;6.292;2022-08-04T13:38:50;32.50;50.80
44537;DHT22;30245;51.966;6.292;2022-08-04T13:41:18;32.50;50.60
44537;DHT22;30245;51.966;6.292;2022-08-04T13:43:54;32.50;50.30
44537;DHT22;30245;51.966;6.292;2022-08-04T13:46:28;32.50;50.20
44537;DHT22;30245;51.966;6.292;2022-08-04T13:48:57;32.50;50.10
44537;DHT22;30245;51.966;6.292;2022-08-04T13:51:24;32.50;49.90
44537;DHT22;30245;51.966;6.292;2022-08-04T13:53:55;32.50;50.00
44537;DHT22;30245;51.966;6.292;2022-08-04T13:56:22;32.50;49.70
44537;DHT22;30245;51.966;6.292;2022-08-04T13:58:54;32.60;49.70
44537;DHT22;30245;51.966;6.292;2022-08-04T14:01:25;32.60;49.30
44537;DHT22;30245;51.966;6.292;2022-08-04T14:04:24;32.60;49.40
44537;DHT22;30245;51.966;6.292;2022-08-04T14:07:11;32.70;49.10
44537;DHT22;30245;51.966;6.292;2022-08-04T14:09:38;33.10;48.40
44537;DHT22;30245;51.966;6.292;2022-08-04T14:14:34;33.70;47.30
44537;DHT22;30245;51.966;6.292;2022-08-04T14:17:02;34.10;46.60
44537;DHT22;30245;51.966;6.292;2022-08-04T14:19:50;34.40;45.90
44537;DHT22;30245;51.966;6.292;2022-08-04T14:25:09;34.90;45.30
44537;DHT22;30245;51.966;6.292;2022-08-04T14:27:55;35.40;44.80
44537;DHT22;30245;51.966;6.292;2022-08-04T14:30:33;35.80;44.20
44537;DHT22;30245;51.966;6.292;2022-08-04T14:33:09;36.10;43.80
44537;DHT22;30245;51.966;6.292;2022-08-04T14:35:35;36.20;43.30
44537;DHT22;30245;51.966;6.292;2022-08-04T14:38:08;36.40;43.00
44537;DHT22;30245;51.966;6.292;2022-08-04T14:40:37;36.60;42.20
44537;DHT22;30245;51.966;6.292;2022-08-04T14:43:03;36.80;42.10
44537;DHT22;30245;51.966;6.292;2022-08-04T14:48:00;37.50;41.30
44537;DHT22;30245;51.966;6.292;2022-08-04T14:50:48;37.70;40.90
44537;DHT22;30245;51.966;6.292;2022-08-04T14:53:16;37.80;40.60
44537;DHT22;30245;51.966;6.292;2022-08-04T14:55:54;37.90;40.10
44537;DHT22;30245;51.966;6.292;2022-08-04T14:58:27;37.90;39.70
44537;DHT22;30245;51.966;6.292;2022-08-04T15:00:56;38.00;39.40
44537;DHT22;30245;51.966;6.292;2022-08-04T15:03:22;38.20;38.80
44537;DHT22;30245;51.966;6.292;2022-08-04T15:05:50;38.30;38.60
44537;DHT22;30245;51.966;6.292;2022-08-04T15:08:16;38.20;38.60
44537;DHT22;30245;51.966;6.292;2022-08-04T15:10:43;38.10;38.90
44537;DHT22;30245;51.966;6.292;2022-08-04T15:13:09;38.10;38.30
44537;DHT22;30245;51.966;6.292;2022-08-04T15:15:38;38.00;38.10
44537;DHT22;30245;51.966;6.292;2022-08-04T15:18:06;38.20;37.70
44537;DHT22;30245;51.966;6.292;2022-08-04T15:20:32;38.20;37.40
44537;DHT22;30245;51.966;6.292;2022-08-04T15:22:57;38.10;37.80
44537;DHT22;30245;51.966;6.292;2022-08-04T15:25:24;37.90;38.10
44537;DHT22;30245;51.966;6.292;2022-08-04T15:27:50;37.70;38.30
44537;DHT22;30245;51.966;6.292;2022-08-04T15:30:17;37.80;38.30
44537;DHT22;30245;51.966;6.292;2022-08-04T15:32:50;37.80;38.30
44537;DHT22;30245;51.966;6.292;2022-08-04T15:35:23;38.00;38.10
44537;DHT22;30245;51.966;6.292;2022-08-04T15:45:38;39.30;36.10
44537;DHT22;30245;51.966;6.292;2022-08-04T15:58:55;38.50;36.80
44537;DHT22;30245;51.966;6.292;2022-08-04T16:01:22;38.20;37.10
44537;DHT22;30245;51.966;6.292;2022-08-04T16:03:49;38.00;36.90
44537;DHT22;30245;51.966;6.292;2022-08-04T16:14:07;37.00;37.90
44537;DHT22;30245;51.966;6.292;2022-08-04T16:21:52;36.70;38.50
44537;DHT22;30245;51.966;6.292;2022-08-04T16:24:21;37.00;38.30
44537;DHT22;30245;51.966;6.292;2022-08-04T16:26:56;37.10;38.10
44537;DHT22;30245;51.966;6.292;2022-08-04T16:37:35;37.10;38.20
44537;DHT22;30245;51.966;6.292;2022-08-04T16:40:35;37.30;38.20
44537;DHT22;30245;51.966;6.292;2022-08-04T16:43:06;37.20;38.00
44537;DHT22;30245;51.966;6.292;2022-08-04T16:45:41;37.20;37.60
44537;DHT22;30245;51.966;6.292;2022-08-04T16:48:08;37.30;36.90
44537;DHT22;30245;51.966;6.292;2022-08-04T16:51:26;37.40;36.10
44537;DHT22;30245;51.966;6.292;2022-08-04T16:53:42;37.50;35.80
44537;DHT22;30245;51.966;6.292;2022-08-04T16:56:09;37.60;35.40
44537;DHT22;30245;51.966;6.292;2022-08-04T16:58:35;37.70;35.40
44537;DHT22;30245;51.966;6.292;2022-08-04T17:01:10;37.80;34.90
44537;DHT22;30245;51.966;6.292;2022-08-04T17:03:37;37.70;35.10
44537;DHT22;30245;51.966;6.292;2022-08-04T17:06:13;37.80;35.00
44537;DHT22;30245;51.966;6.292;2022-08-04T17:08:47;37.90;34.80
44537;DHT22;30245;51.966;6.292;2022-08-04T17:11:14;38.10;34.80
44537;DHT22;30245;51.966;6.292;2022-08-04T17:13:43;38.20;34.30
44537;DHT22;30245;51.966;6.292;2022-08-04T17:16:11;38.10;34.30
44537;DHT22;30245;51.966;6.292;2022-08-04T17:18:41;38.00;34.20
44537;DHT22;30245;51.966;6.292;2022-08-04T17:21:10;37.90;34.30
44537;DHT22;30245;51.966;6.292;2022-08-04T17:23:44;38.00;34.20
44537;DHT22;30245;51.966;6.292;2022-08-04T17:26:17;37.80;34.20
44537;DHT22;30245;51.966;6.292;2022-08-04T17:28:49;37.40;34.50
44537;DHT22;30245;51.966;6.292;2022-08-04T17:31:15;37.10;34.70
44537;DHT22;30245;51.966;6.292;2022-08-04T17:33:49;36.80;35.10
44537;DHT22;30245;51.966;6.292;2022-08-04T17:36:16;36.40;35.20
44537;DHT22;30245;51.966;6.292;2022-08-04T17:41:11;35.50;35.80
44537;DHT22;30245;51.966;6.292;2022-08-04T17:43:44;35.10;36.10
44537;DHT22;30245;51.966;6.292;2022-08-04T17:48:40;34.60;36.80
44537;DHT22;30245;51.966;6.292;2022-08-04T17:51:16;34.40;37.00
44537;DHT22;30245;51.966;6.292;2022-08-04T17:53:42;34.30;37.30
44537;DHT22;30245;51.966;6.292;2022-08-04T17:56:27;34.10;37.40
44537;DHT22;30245;51.966;6.292;2022-08-04T18:01:45;33.50;37.50
44537;DHT22;30245;51.966;6.292;2022-08-04T18:04:31;33.30;37.60
44537;DHT22;30245;51.966;6.292;2022-08-04T18:07:09;33.00;37.50
44537;DHT22;30245;51.966;6.292;2022-08-04T18:09:48;32.80;37.70
44537;DHT22;30245;51.966;6.292;2022-08-04T18:14:53;32.30;38.30
44537;DHT22;30245;51.966;6.292;2022-08-04T18:17:34;32.10;38.90
44537;DHT22;30245;51.966;6.292;2022-08-04T18:20:05;31.90;38.50
44537;DHT22;30245;51.966;6.292;2022-08-04T18:22:31;31.80;38.70
44537;DHT22;30245;51.966;6.292;2022-08-04T18:24:57;31.70;38.80
44537;DHT22;30245;51.966;6.292;2022-08-04T18:27:28;31.60;39.00
44537;DHT22;30245;51.966;6.292;2022-08-04T18:29:54;31.50;39.00
44537;DHT22;30245;51.966;6.292;2022-08-04T18:32:21;31.40;39.10
44537;DHT22;30245;51.966;6.292;2022-08-04T18:34:49;31.30;39.30
44537;DHT22;30245;51.966;6.292;2022-08-04T18:37:15;31.20;39.40
44537;DHT22;30245;51.966;6.292;2022-08-04T18:39:41;31.10;39.50
44537;DHT22;30245;51.966;6.292;2022-08-04T18:42:06;31.00;39.80
44537;DHT22;30245;51.966;6.292;2022-08-04T18:44:32;30.90;40.00
44537;DHT22;30245;51.966;6.292;2022-08-04T18:46:59;30.80;40.20
44537;DHT22;30245;51.966;6.292;2022-08-04T18:49:25;30.70;40.30
44537;DHT22;30245;51.966;6.292;2022-08-04T18:51:52;30.60;40.50
44537;DHT22;30245;51.966;6.292;2022-08-04T18:54:22;30.60;40.70
44537;DHT22;30245;51.966;6.292;2022-08-04T18:56:52;30.50;40.80
44537;DHT22;30245;51.966;6.292;2022-08-04T18:59:19;30.50;40.90
44537;DHT22;30245;51.966;6.292;2022-08-04T19:01:45;30.50;41.10
44537;DHT22;30245;51.966;6.292;2022-08-04T19:04:11;30.40;41.20
44537;DHT22;30245;51.966;6.292;2022-08-04T19:06:37;30.30;41.30
44537;DHT22;30245;51.966;6.292;2022-08-04T19:09:03;30.30;41.50
44537;DHT22;30245;51.966;6.292;2022-08-04T19:11:30;30.30;41.60
44537;DHT22;30245;51.966;6.292;2022-08-04T19:13:58;30.20;41.70
44537;DHT22;30245;51.966;6.292;2022-08-04T19:16:24;30.10;41.90
44537;DHT22;30245;51.966;6.292;2022-08-04T19:18:50;30.00;42.10
44537;DHT22;30245;51.966;6.292;2022-08-04T19:21:15;29.90;42.40
44537;DHT22;30245;51.966;6.292;2022-08-04T19:23:41;29.80;42.60
44537;DHT22;30245;51.966;6.292;2022-08-04T19:26:06;29.70;42.70
44537;DHT22;30245;51.966;6.292;2022-08-04T19:28:35;29.60;42.80
44537;DHT22;30245;51.966;6.292;2022-08-04T19:31:02;29.60;42.90
44537;DHT22;30245;51.966;6.292;2022-08-04T19:33:28;29.60;43.00
44537;DHT22;30245;51.966;6.292;2022-08-04T19:35:54;29.50;43.00
44537;DHT22;30245;51.966;6.292;2022-08-04T19:38:22;29.40;43.20
44537;DHT22;30245;51.966;6.292;2022-08-04T19:40:48;29.30;43.50
44537;DHT22;30245;51.966;6.292;2022-08-04T19:43:24;29.20;43.80
44537;DHT22;30245;51.966;6.292;2022-08-04T19:45:49;29.10;43.90
44537;DHT22;30245;51.966;6.292;2022-08-04T19:48:16;29.10;44.00
44537;DHT22;30245;51.966;6.292;2022-08-04T19:50:41;29.10;44.10
44537;DHT22;30245;51.966;6.292;2022-08-04T19:53:10;29.00;44.10
44537;DHT22;30245;51.966;6.292;2022-08-04T19:55:35;29.00;44.30
44537;DHT22;30245;51.966;6.292;2022-08-04T19:58:05;29.00;44.40
44537;DHT22;30245;51.966;6.292;2022-08-04T20:00:32;29.00;44.50
44537;DHT22;30245;51.966;6.292;2022-08-04T20:02:57;29.00;45.00
44537;DHT22;30245;51.966;6.292;2022-08-04T20:05:24;28.90;44.50
44537;DHT22;30245;51.966;6.292;2022-08-04T20:07:50;28.90;44.60
44537;DHT22;30245;51.966;6.292;2022-08-04T20:10:15;28.80;44.50
44537;DHT22;30245;51.966;6.292;2022-08-04T20:12:43;28.80;44.70
44537;DHT22;30245;51.966;6.292;2022-08-04T20:15:09;28.80;44.60
44537;DHT22;30245;51.966;6.292;2022-08-04T20:17:35;28.80;44.50
44537;DHT22;30245;51.966;6.292;2022-08-04T20:20:02;28.80;44.50
44537;DHT22;30245;51.966;6.292;2022-08-04T20:22:28;28.70;44.40
44537;DHT22;30245;51.966;6.292;2022-08-04T20:24:54;28.70;44.50
44537;DHT22;30245;51.966;6.292;2022-08-04T20:27:20;28.60;44.70
44537;DHT22;30245;51.966;6.292;2022-08-04T20:29:48;28.50;44.60
44537;DHT22;30245;51.966;6.292;2022-08-04T20:32:14;28.50;44.70
44537;DHT22;30245;51.966;6.292;2022-08-04T20:34:39;28.40;44.60
44537;DHT22;30245;51.966;6.292;2022-08-04T20:37:05;28.50;44.60
44537;DHT22;30245;51.966;6.292;2022-08-04T20:39:34;28.40;44.50
44537;DHT22;30245;51.966;6.292;2022-08-04T20:41:59;28.50;44.50
44537;DHT22;30245;51.966;6.292;2022-08-04T20:44:25;28.50;44.60